Time;durP1;ratioP1;P1;durP2;ratioP2;P2;SDS_P1;SDS_P2;PMS_P1;PMS_P2;Temp;Humidity;BMP_temperature;BMP_pressure;BME280_temperature;BME280_humidity;BME280_pressure;Samples;Min_cycle;Max_cycle;Signal;HPM_P1;HPM_P2
2022/02/01 00:01:00;;;;;;;16.65;2.15;;;3.60;99.90;;;;;;5058083;28;20547;-77
2022/02/01 00:03:30;;;;;;;12.38;2.35;;;3.60;99.90;;;;;;5085179;28;20048;-77
2022/02/01 00:06:13;;;;;;;20.90;2.70;;;3.70;99.90;;;;;;5083004;28;20481;-77
2022/02/01 00:09:04;;;;;;;16.83;2.60;;;3.80;99.90;;;;;;5081840;28;20106;-77
2022/02/01 00:12:38;;;;;;;12.68;2.67;;;3.70;99.90;;;;;;5083048;28;20112;-77
2022/02/01 00:17:30;;;;;;;13.45;2.03;;;3.80;99.90;;;;;;5060785;28;20052;-77
2022/02/01 00:33:17;;;;;;;16.08;1.77;;;3.90;99.90;;;;;;5084702;28;20102;-77
2022/02/01 00:34:05;;;;;;;10.80;1.85;;;3.90;99.90;;;;;;5081594;28;20076;-77
2022/02/01 00:36:39;;;;;;;19.88;1.77;;;3.90;99.90;;;;;;5086954;28;20036;-77
2022/02/01 00:39:09;;;;;;;21.80;2.90;;;3.90;99.90;;;;;;5080319;28;20054;-77
2022/02/01 00:41:40;;;;;;;13.02;1.83;;;3.90;99.90;;;;;;5084737;28;20460;-78
2022/02/01 00:44:05;;;;;;;15.02;1.95;;;3.90;99.90;;;;;;5065199;28;20044;-77
2022/02/01 00:46:31;;;;;;;16.58;2.05;;;3.90;99.90;;;;;;5080281;28;20037;-78
2022/02/01 00:48:57;;;;;;;21.33;3.17;;;3.90;99.90;;;;;;5081529;28;20048;-78
2022/02/01 00:51:23;;;;;;;17.15;2.17;;;3.90;99.90;;;;;;5083191;28;20055;-77
2022/02/01 00:53:48;;;;;;;23.33;2.80;;;3.90;99.90;;;;;;5081894;28;20638;-77
2022/02/01 00:56:15;;;;;;;15.32;1.92;;;3.90;99.90;;;;;;5084117;28;20032;-77
2022/02/01 00:58:41;;;;;;;12.43;2.00;;;3.90;99.90;;;;;;5081899;28;20079;-77
2022/02/01 01:01:07;;;;;;;17.25;2.33;;;3.90;99.90;;;;;;5087075;28;20039;-77
2022/02/01 01:03:33;;;;;;;14.82;1.85;;;3.80;99.90;;;;;;5082040;28;20782;-78
2022/02/01 01:05:59;;;;;;;20.70;3.08;;;3.80;99.90;;;;;;5081605;28;20048;-77
2022/02/01 01:08:25;;;;;;;17.10;2.33;;;3.80;99.90;;;;;;5078661;28;20120;-77
2022/02/01 01:10:51;;;;;;;16.38;2.60;;;3.80;99.90;;;;;;5087320;28;20036;-77
2022/02/01 01:13:58;;;;;;;15.52;2.20;;;3.70;99.90;;;;;;5079543;28;20036;-77
2022/02/01 01:38:44;;;;;;;22.15;3.42;;;3.80;99.90;;;;;;5082678;28;20093;-77
2022/02/01 01:38:55;;;;;;;20.35;1.88;;;3.80;99.90;;;;;;5058532;28;20053;-77
2022/02/01 01:44:12;;;;;;;14.27;1.73;;;3.80;99.90;;;;;;5083387;28;20060;-77
2022/02/01 01:54:51;;;;;;;12.18;1.55;;;3.90;99.90;;;;;;5082133;28;20044;-77
2022/02/01 01:57:17;;;;;;;10.85;1.48;;;3.90;99.90;;;;;;5082638;28;20390;-77
2022/02/01 01:59:43;;;;;;;18.25;1.73;;;3.90;99.90;;;;;;5082052;28;20044;-77
2022/02/01 02:02:08;;;;;;;13.32;1.58;;;3.90;99.90;;;;;;5083127;28;20055;-77
2022/02/01 02:04:34;;;;;;;16.58;1.55;;;3.90;99.90;;;;;;5081031;28;20035;-78
2022/02/01 02:07:00;;;;;;;11.88;2.30;;;4.00;99.90;;;;;;5080731;28;20048;-78
2022/02/01 02:09:27;;;;;;;17.80;2.65;;;3.90;99.90;;;;;;5078196;28;20043;-78
2022/02/01 02:12:10;;;;;;;12.75;1.73;;;4.00;99.90;;;;;;5081737;28;20056;-77
2022/02/01 02:14:43;;;;;;;11.23;1.83;;;4.00;99.90;;;;;;5084025;28;20450;-78
2022/02/01 02:17:09;;;;;;;14.52;1.98;;;4.00;99.90;;;;;;5080843;28;20406;-77
2022/02/01 02:19:34;;;;;;;16.98;2.10;;;4.00;99.90;;;;;;5082355;28;20135;-78
2022/02/01 02:22:03;;;;;;;15.68;1.55;;;4.00;99.90;;;;;;5075883;28;20548;-77
2022/02/01 02:24:34;;;;;;;13.93;1.95;;;4.00;99.90;;;;;;5084855;28;20040;-77
2022/02/01 02:27:01;;;;;;;15.48;2.80;;;4.00;99.90;;;;;;5063456;28;20151;-77
2022/02/01 02:29:28;;;;;;;10.02;1.52;;;4.00;99.90;;;;;;5081595;28;20036;-78
2022/02/01 02:31:54;;;;;;;16.95;1.88;;;4.00;99.90;;;;;;5082440;28;20390;-78
2022/02/01 02:34:20;;;;;;;11.73;1.88;;;4.10;99.90;;;;;;5082610;28;20045;-78
2022/02/01 02:36:52;;;;;;;10.25;1.30;;;4.10;99.90;;;;;;5081676;28;20045;-77
2022/02/01 02:42:06;;;;;;;12.10;2.13;;;4.10;99.90;;;;;;5083169;28;20050;-77
2022/02/01 02:47:17;;;;;;;15.98;1.48;;;4.20;99.90;;;;;;5083264;28;20487;-77
2022/02/01 02:49:42;;;;;;;11.60;1.40;;;4.20;99.90;;;;;;5080354;28;20158;-77
2022/02/01 02:52:08;;;;;;;12.18;1.85;;;4.20;99.90;;;;;;5084130;28;20036;-78
2022/02/01 02:54:34;;;;;;;11.98;1.38;;;4.20;99.90;;;;;;5078963;28;20048;-78
2022/02/01 02:57:02;;;;;;;16.77;1.80;;;4.20;99.90;;;;;;5078682;28;20078;-77
2022/02/01 02:59:29;;;;;;;13.32;1.83;;;4.20;99.90;;;;;;5085820;28;20060;-77
2022/02/01 03:01:55;;;;;;;11.02;1.20;;;4.20;99.90;;;;;;5081818;28;20044;-78
2022/02/01 03:04:24;;;;;;;12.55;1.23;;;4.10;99.90;;;;;;5082825;28;20619;-77
2022/02/01 03:06:50;;;;;;;13.63;1.75;;;4.20;99.90;;;;;;5084773;28;20044;-78
2022/02/01 03:09:18;;;;;;;18.45;1.75;;;4.20;99.90;;;;;;5080366;28;20043;-78
2022/02/01 03:11:44;;;;;;;13.23;1.35;;;4.20;99.90;;;;;;5080266;28;20051;-77
2022/02/01 03:14:23;;;;;;;13.27;1.60;;;4.10;99.90;;;;;;5083568;28;20051;-77
2022/02/01 03:21:59;;;;;;;13.75;1.80;;;4.20;99.90;;;;;;5083634;28;20115;-77
2022/02/01 03:24:25;;;;;;;10.00;1.42;;;4.20;99.90;;;;;;5079350;28;20044;-77
2022/02/01 03:26:50;;;;;;;8.20;1.48;;;4.10;99.90;;;;;;5079329;28;20469;-78
2022/02/01 03:29:16;;;;;;;7.93;1.00;;;4.10;99.90;;;;;;5082324;28;20040;-77
2022/02/01 03:31:42;;;;;;;10.60;1.08;;;4.10;99.90;;;;;;5081411;28;20090;-77
2022/02/01 03:34:07;;;;;;;8.90;1.42;;;4.10;99.90;;;;;;5082492;28;20036;-77
2022/02/01 03:36:33;;;;;;;13.23;2.10;;;4.10;99.90;;;;;;5083513;28;20032;-77
2022/02/01 03:39:00;;;;;;;6.82;1.00;;;4.10;99.90;;;;;;5085315;28;20024;-77
2022/02/01 03:41:26;;;;;;;7.43;0.80;;;4.00;99.90;;;;;;5086872;28;20044;-78
2022/02/01 03:43:52;;;;;;;7.55;0.73;;;4.00;99.90;;;;;;5086150;28;20113;-76
2022/02/01 03:46:17;;;;;;;8.05;1.20;;;4.00;99.90;;;;;;5082518;28;20676;-77
2022/02/01 03:48:43;;;;;;;13.30;1.00;;;4.00;99.90;;;;;;5083659;28;20613;-77
2022/02/01 03:51:09;;;;;;;5.55;0.82;;;3.90;99.90;;;;;;5083158;28;20406;-77
2022/02/01 03:53:38;;;;;;;9.15;1.20;;;3.90;99.90;;;;;;5078804;28;20494;-77
2022/02/01 03:56:05;;;;;;;9.93;1.35;;;3.90;99.90;;;;;;5082900;28;20029;-78
2022/02/01 03:58:31;;;;;;;7.47;0.65;;;4.10;99.90;;;;;;5083940;28;20047;-78
2022/02/01 04:00:57;;;;;;;14.18;0.95;;;3.90;99.90;;;;;;5084354;28;20032;-77
2022/02/01 04:03:22;;;;;;;5.22;1.02;;;3.90;99.90;;;;;;5082269;28;20036;-77
2022/02/01 04:05:48;;;;;;;10.35;0.77;;;3.90;99.90;;;;;;5084650;28;20087;-78
2022/02/01 04:08:16;;;;;;;9.23;1.08;;;3.80;99.90;;;;;;5086215;28;20063;-78
2022/02/01 04:10:43;;;;;;;11.45;0.90;;;3.90;99.90;;;;;;5084307;28;20494;-77
2022/02/01 04:13:09;;;;;;;13.60;1.45;;;3.90;99.90;;;;;;5083707;28;20049;-77
2022/02/01 04:15:34;;;;;;;13.45;1.35;;;3.90;99.90;;;;;;5084699;28;20054;-77
2022/02/01 04:18:00;;;;;;;11.38;1.25;;;3.90;99.90;;;;;;5084602;28;20433;-77
2022/02/01 04:20:26;;;;;;;14.20;1.65;;;3.90;99.90;;;;;;5080475;28;20478;-78
2022/02/01 04:22:52;;;;;;;12.75;0.98;;;4.00;99.90;;;;;;5084976;28;20094;-77
2022/02/01 04:25:18;;;;;;;6.95;1.60;;;4.00;99.90;;;;;;5086952;28;21024;-78
2022/02/01 04:27:44;;;;;;;7.18;0.85;;;4.00;99.90;;;;;;5085333;28;20040;-78
2022/02/01 04:30:15;;;;;;;11.93;1.35;;;4.00;99.90;;;;;;5080464;28;20085;-78
2022/02/01 04:32:44;;;;;;;8.18;0.82;;;4.00;99.90;;;;;;5085263;28;20028;-78
2022/02/01 04:35:15;;;;;;;7.97;1.27;;;4.00;99.90;;;;;;5083584;28;20433;-78
2022/02/01 04:37:41;;;;;;;8.35;0.80;;;4.00;99.90;;;;;;5083798;28;20119;-77
2022/02/01 04:40:11;;;;;;;9.15;0.70;;;4.00;99.90;;;;;;5082631;28;20052;-77
2022/02/01 04:42:38;;;;;;;12.02;1.15;;;4.00;99.90;;;;;;5081282;28;20078;-77
2022/02/01 04:45:05;;;;;;;10.30;1.33;;;4.10;99.90;;;;;;5081689;28;20498;-78
2022/02/01 04:47:33;;;;;;;7.57;0.60;;;4.00;99.90;;;;;;5083252;28;20588;-78
2022/02/01 04:50:07;;;;;;;8.52;1.60;;;4.10;99.90;;;;;;5083836;28;20083;-77
2022/02/01 04:52:33;;;;;;;9.68;1.83;;;4.10;99.90;;;;;;5081889;28;20110;-78
2022/02/01 04:54:59;;;;;;;8.93;1.27;;;4.10;99.90;;;;;;5084583;28;20043;-77
2022/02/01 04:57:25;;;;;;;9.68;1.63;;;4.10;99.90;;;;;;5085376;28;20036;-77
2022/02/01 04:59:51;;;;;;;6.72;0.95;;;4.00;99.90;;;;;;5086972;28;20031;-78
2022/02/01 05:02:17;;;;;;;13.75;1.40;;;4.10;99.90;;;;;;5084131;28;20473;-80
2022/02/01 05:04:42;;;;;;;10.63;1.15;;;4.10;99.90;;;;;;5085190;28;20048;-80
2022/02/01 05:07:08;;;;;;;9.40;1.00;;;4.10;99.90;;;;;;5085955;28;20087;-80
2022/02/01 05:09:34;;;;;;;8.60;0.90;;;4.20;99.90;;;;;;5084326;28;20131;-80
2022/02/01 05:12:03;;;;;;;10.07;1.30;;;4.20;99.90;;;;;;5082315;28;20036;-80
2022/02/01 05:14:30;;;;;;;10.27;1.33;;;4.10;99.90;;;;;;5084996;28;20073;-79
2022/02/01 05:16:58;;;;;;;13.25;1.77;;;4.10;99.90;;;;;;5090907;28;20402;-80
2022/02/01 05:22:01;;;;;;;15.75;1.98;;;4.20;99.90;;;;;;5102676;28;20066;-79
2022/02/01 05:24:27;;;;;;;8.63;1.63;;;4.20;99.90;;;;;;5094418;28;20041;-80
2022/02/01 05:26:54;;;;;;;13.48;1.50;;;4.20;99.90;;;;;;5085468;28;20565;-79
2022/02/01 05:29:21;;;;;;;13.55;1.75;;;4.20;99.90;;;;;;5093537;28;20455;-80
2022/02/01 05:31:51;;;;;;;10.85;1.55;;;4.20;99.90;;;;;;5095935;28;20381;-80
2022/02/01 05:34:18;;;;;;;12.40;1.20;;;4.20;99.90;;;;;;5092645;28;20051;-79
2022/02/01 05:36:43;;;;;;;13.25;1.75;;;4.30;99.90;;;;;;5088491;28;20454;-80
2022/02/01 05:39:18;;;;;;;12.40;1.65;;;4.30;99.90;;;;;;5089846;28;20074;-80
2022/02/01 05:41:44;;;;;;;13.02;2.05;;;4.40;99.90;;;;;;5089845;28;20092;-80
2022/02/01 05:44:10;;;;;;;14.98;2.10;;;4.40;99.90;;;;;;5092531;28;20126;-80
2022/02/01 05:46:36;;;;;;;12.40;1.83;;;4.40;99.90;;;;;;5075760;28;20778;-80
2022/02/01 05:49:03;;;;;;;13.02;2.17;;;4.50;99.90;;;;;;5091963;28;20158;-80
2022/02/01 05:51:29;;;;;;;7.75;1.77;;;4.40;99.90;;;;;;5091470;28;20389;-80
2022/02/01 05:53:55;;;;;;;14.10;1.75;;;4.50;99.90;;;;;;5084689;28;20052;-80
2022/02/01 05:56:21;;;;;;;17.50;2.25;;;4.50;99.90;;;;;;5094977;28;20127;-80
2022/02/01 05:58:46;;;;;;;15.20;2.08;;;4.50;99.90;;;;;;5084705;28;20063;-80
2022/02/01 06:01:12;;;;;;;16.63;1.95;;;4.50;99.90;;;;;;5089628;28;20104;-80
2022/02/01 06:03:38;;;;;;;14.70;2.20;;;4.50;99.90;;;;;;5081048;28;20036;-80
2022/02/01 06:06:04;;;;;;;12.38;1.77;;;4.60;99.90;;;;;;5087160;28;20622;-80
2022/02/01 06:08:30;;;;;;;12.98;2.08;;;4.60;99.90;;;;;;5087488;28;20037;-80
2022/02/01 06:10:56;;;;;;;16.00;2.47;;;4.60;99.90;;;;;;5086023;28;20036;-80
2022/02/01 06:13:22;;;;;;;21.23;3.85;;;4.60;99.90;;;;;;5082928;28;20051;-80
2022/02/01 06:15:47;;;;;;;23.45;3.08;;;4.70;99.90;;;;;;5090270;28;20040;-80
2022/02/01 06:18:13;;;;;;;13.88;1.80;;;4.70;99.90;;;;;;5085586;28;20036;-80
2022/02/01 06:20:38;;;;;;;18.98;2.58;;;4.70;99.90;;;;;;5079224;28;20121;-80
2022/02/01 06:23:16;;;;;;;16.40;2.28;;;4.70;99.90;;;;;;5088262;28;20501;-80
2022/02/01 06:25:51;;;;;;;12.70;2.60;;;4.80;99.90;;;;;;5082757;28;20060;-80
2022/02/01 06:28:19;;;;;;;22.85;4.75;;;4.80;99.90;;;;;;5068433;28;20047;-80
2022/02/01 06:30:45;;;;;;;17.85;2.95;;;4.80;99.90;;;;;;5080459;28;20041;-80
2022/02/01 06:33:12;;;;;;;17.77;2.38;;;4.80;99.90;;;;;;5086794;28;20044;-80
2022/02/01 06:35:38;;;;;;;19.33;3.13;;;4.80;99.90;;;;;;5085240;28;20099;-80
2022/02/01 06:38:04;;;;;;;20.10;2.72;;;4.90;99.90;;;;;;5076132;28;20075;-80
2022/02/01 06:40:29;;;;;;;16.40;2.95;;;4.90;99.90;;;;;;5085736;28;20043;-80
2022/02/01 06:42:56;;;;;;;18.23;2.90;;;4.90;99.90;;;;;;5085393;28;20040;-80
2022/02/01 06:45:23;;;;;;;18.95;3.38;;;5.00;99.90;;;;;;5080923;28;20048;-80
2022/02/01 06:47:49;;;;;;;19.55;3.08;;;4.90;99.90;;;;;;5082064;28;21043;-80
2022/02/01 06:50:19;;;;;;;15.02;3.50;;;5.00;99.90;;;;;;5084153;28;20074;-80
2022/02/01 06:52:55;;;;;;;18.95;3.80;;;5.00;99.90;;;;;;5084712;28;20044;-80
2022/02/01 06:55:32;;;;;;;22.02;2.80;;;5.00;99.90;;;;;;5084846;28;20493;-81
2022/02/01 06:58:03;;;;;;;22.08;4.15;;;5.00;99.90;;;;;;5102822;28;20073;-82
2022/02/01 07:00:30;;;;;;;18.13;3.80;;;5.00;99.90;;;;;;5083357;28;20119;-81
2022/02/01 07:02:56;;;;;;;20.15;3.58;;;5.00;99.90;;;;;;5093608;28;20039;-82
2022/02/01 07:05:22;;;;;;;22.27;4.75;;;5.00;99.90;;;;;;5084979;28;20043;-82
2022/02/01 07:07:50;;;;;;;24.65;3.88;;;5.00;99.90;;;;;;5084841;28;20076;-82
2022/02/01 07:10:17;;;;;;;17.85;4.32;;;5.00;99.90;;;;;;5090052;28;20059;-82
2022/02/01 07:12:44;;;;;;;20.27;4.18;;;5.00;99.90;;;;;;5088159;28;20513;-82
2022/02/01 07:15:09;;;;;;;24.15;5.72;;;5.00;99.90;;;;;;5082151;28;20052;-82
2022/02/01 07:17:56;;;;;;;22.63;4.93;;;5.00;99.90;;;;;;5091479;28;20060;-82
2022/02/01 07:20:22;;;;;;;25.38;5.18;;;5.00;99.90;;;;;;5085069;28;20047;-82
2022/02/01 07:22:49;;;;;;;17.25;5.55;;;5.00;99.90;;;;;;5077396;28;20066;-83
2022/02/01 07:25:25;;;;;;;25.02;5.32;;;5.10;99.90;;;;;;5082717;28;20570;-83
2022/02/01 07:27:52;;;;;;;25.05;6.22;;;5.00;99.90;;;;;;5086456;28;20101;-82
2022/02/01 07:30:23;;;;;;;25.67;6.82;;;5.00;99.90;;;;;;5082464;28;20283;-84
2022/02/01 07:32:50;;;;;;;26.38;6.90;;;5.00;99.90;;;;;;5084821;28;20039;-82
2022/02/01 07:35:18;;;;;;;23.23;6.75;;;5.00;99.90;;;;;;5077512;28;20661;-80
2022/02/01 07:37:44;;;;;;;24.95;7.57;;;5.00;99.90;;;;;;5079369;28;20044;-80
2022/02/01 07:40:11;;;;;;;19.13;6.40;;;5.00;99.90;;;;;;5084021;28;20036;-80
2022/02/01 07:42:37;;;;;;;25.15;5.80;;;5.10;99.90;;;;;;5080317;28;20139;-80
2022/02/01 07:45:05;;;;;;;21.73;5.63;;;5.00;99.90;;;;;;5077699;28;20135;-81
2022/02/01 07:47:31;;;;;;;24.17;6.18;;;5.00;99.90;;;;;;5079011;28;20060;-81
2022/02/01 07:49:58;;;;;;;20.33;5.20;;;5.00;99.90;;;;;;5083101;28;20434;-81
2022/02/01 07:52:23;;;;;;;20.50;5.00;;;4.90;99.90;;;;;;5077450;28;20044;-80
2022/02/01 07:54:49;;;;;;;25.73;5.20;;;4.90;99.90;;;;;;5078504;28;20042;-81
2022/02/01 07:57:15;;;;;;;20.50;5.07;;;4.90;99.90;;;;;;5078562;28;20040;-81
2022/02/01 07:59:41;;;;;;;11.35;4.95;;;4.90;99.90;;;;;;5083482;28;20040;-80
2022/02/01 08:02:18;;;;;;;16.83;5.40;;;4.90;99.90;;;;;;5081678;28;20473;-81
2022/02/01 08:04:46;;;;;;;18.15;6.68;;;4.90;99.90;;;;;;5061994;28;20089;-80
2022/02/01 08:07:12;;;;;;;14.23;5.90;;;5.00;99.90;;;;;;5082193;28;20090;-81
2022/02/01 08:09:42;;;;;;;14.95;5.95;;;5.00;99.90;;;;;;5080442;28;20043;-81
2022/02/01 08:12:39;;;;;;;15.07;7.13;;;5.00;99.90;;;;;;5080639;28;20417;-81
2022/02/01 08:15:53;;;;;;;13.98;6.15;;;5.10;99.90;;;;;;5081953;28;20047;-81
2022/02/01 08:18:08;;;;;;;10.32;6.18;;;5.00;99.90;;;;;;5080477;28;20040;-81
2022/02/01 08:21:10;;;;;;;14.70;6.28;;;5.00;99.90;;;;;;5079897;28;20125;-81
2022/02/01 08:23:30;;;;;;;12.23;6.13;;;5.10;99.90;;;;;;5081378;28;20036;-81
2022/02/01 08:25:58;;;;;;;8.05;6.13;;;5.10;99.90;;;;;;5084517;28;20051;-81
2022/02/01 08:28:24;;;;;;;12.35;6.05;;;5.10;99.90;;;;;;5082007;28;20043;-81
2022/02/01 08:30:54;;;;;;;8.80;5.82;;;5.10;99.90;;;;;;5084697;28;20040;-81
2022/02/01 08:33:20;;;;;;;15.05;5.25;;;5.10;99.90;;;;;;5080086;28;20044;-82
2022/02/01 08:35:46;;;;;;;8.45;5.57;;;5.20;99.90;;;;;;5089732;28;20028;-82
2022/02/01 08:38:12;;;;;;;7.90;5.88;;;5.20;99.90;;;;;;5085525;28;20169;-82
2022/02/01 08:40:38;;;;;;;9.02;6.20;;;5.20;99.90;;;;;;5085837;28;20067;-82
2022/02/01 08:43:04;;;;;;;10.27;6.32;;;5.20;99.90;;;;;;5086013;28;20071;-81
2022/02/01 08:45:30;;;;;;;8.13;6.03;;;5.30;99.90;;;;;;5083359;28;20064;-81
2022/02/01 08:47:57;;;;;;;6.90;5.35;;;5.20;99.90;;;;;;5101038;27;20036;-81
2022/02/01 08:50:28;;;;;;;6.38;5.63;;;5.20;99.90;;;;;;5082693;28;20382;-81
2022/02/01 08:52:59;;;;;;;9.88;7.25;;;5.30;99.90;;;;;;5081618;28;20674;-82
2022/02/01 08:55:36;;;;;;;9.25;6.80;;;5.30;99.90;;;;;;5086649;28;20028;-81
2022/02/01 08:58:03;;;;;;;8.40;6.47;;;5.40;99.90;;;;;;5084823;28;20746;-81
2022/02/01 09:00:30;;;;;;;9.10;6.97;;;5.30;99.90;;;;;;5086450;28;20032;-81
2022/02/01 09:02:57;;;;;;;10.90;7.80;;;5.40;99.90;;;;;;5082996;28;20029;-81
2022/02/01 09:05:23;;;;;;;8.70;6.82;;;5.40;99.90;;;;;;5082588;28;20040;-82
2022/02/01 09:07:49;;;;;;;10.05;8.38;;;5.50;99.90;;;;;;5081273;28;20489;-83
2022/02/01 09:10:14;;;;;;;9.00;7.55;;;5.50;99.90;;;;;;5080901;28;20036;-81
2022/02/01 09:12:40;;;;;;;8.50;7.20;;;5.50;99.90;;;;;;5081198;28;20485;-81
2022/02/01 09:15:06;;;;;;;8.80;7.25;;;5.60;99.90;;;;;;5088768;28;20039;-81
2022/02/01 09:17:32;;;;;;;7.25;6.53;;;5.60;99.90;;;;;;5083158;28;20039;-80
2022/02/01 09:19:58;;;;;;;9.45;7.82;;;5.60;99.90;;;;;;5083096;28;20036;-82
2022/02/01 09:22:25;;;;;;;8.25;6.82;;;5.60;99.90;;;;;;5083383;28;20074;-81
2022/02/01 09:24:50;;;;;;;6.80;6.03;;;5.70;99.90;;;;;;5084911;28;20048;-81
2022/02/01 09:27:16;;;;;;;8.10;6.60;;;5.70;99.90;;;;;;5080687;28;20047;-81
2022/02/01 09:29:42;;;;;;;6.78;5.80;;;5.80;99.90;;;;;;5084167;28;20043;-81
2022/02/01 09:32:09;;;;;;;6.80;5.57;;;5.80;99.90;;;;;;5083756;28;20031;-82
2022/02/01 09:34:34;;;;;;;6.50;5.70;;;6.00;99.90;;;;;;5084165;28;20055;-81
2022/02/01 09:37:03;;;;;;;7.90;5.30;;;6.00;99.90;;;;;;5080417;28;20040;-81
2022/02/01 09:39:30;;;;;;;6.60;5.05;;;6.10;99.90;;;;;;5083860;28;20704;-81
2022/02/01 09:41:57;;;;;;;5.65;4.85;;;6.10;99.90;;;;;;5080551;28;20657;-81
2022/02/01 09:44:23;;;;;;;4.55;3.95;;;6.20;99.90;;;;;;5082692;28;20047;-81
2022/02/01 09:46:50;;;;;;;4.18;3.78;;;6.20;99.90;;;;;;5082266;28;20050;-81
2022/02/01 09:49:19;;;;;;;5.70;3.58;;;6.30;99.90;;;;;;5081203;28;20040;-81
2022/02/01 09:51:48;;;;;;;6.68;3.35;;;6.30;99.90;;;;;;5084975;28;20051;-82
2022/02/01 09:54:14;;;;;;;3.78;2.72;;;6.40;99.90;;;;;;5082224;28;20041;-81
2022/02/01 09:56:40;;;;;;;2.47;2.20;;;6.40;99.90;;;;;;5083809;28;20043;-81
2022/02/01 09:59:31;;;;;;;3.15;1.70;;;6.40;99.90;;;;;;5083529;28;20043;-81
2022/02/01 10:02:06;;;;;;;2.20;1.73;;;6.50;99.90;;;;;;5082075;28;20092;-81
2022/02/01 10:04:32;;;;;;;2.30;1.33;;;6.60;99.90;;;;;;5069625;28;20037;-81
2022/02/01 10:07:15;;;;;;;1.63;1.10;;;6.60;99.90;;;;;;5081988;28;20040;-81
2022/02/01 10:09:56;;;;;;;2.25;1.17;;;6.70;99.90;;;;;;5082535;28;20040;-82
2022/02/01 10:12:26;;;;;;;4.07;1.20;;;6.70;99.90;;;;;;5085026;28;20036;-81
2022/02/01 10:15:02;;;;;;;1.08;0.77;;;6.70;99.90;;;;;;5080175;28;20040;-81
2022/02/01 10:17:46;;;;;;;1.00;0.70;;;6.80;99.90;;;;;;5081143;28;20032;-81
2022/02/01 10:20:13;;;;;;;0.73;0.60;;;6.80;99.90;;;;;;5080693;28;21382;-82
2022/02/01 10:22:40;;;;;;;1.25;0.50;;;6.80;99.90;;;;;;5081313;28;20051;-82
2022/02/01 10:25:20;;;;;;;1.88;0.60;;;6.80;99.90;;;;;;5080764;28;20414;-81
2022/02/01 10:27:56;;;;;;;0.82;0.40;;;6.90;99.90;;;;;;5081542;28;20033;-81
2022/02/01 10:30:26;;;;;;;;;;;7.50;99.90;;;;;;5080961;28;20044;-81
2022/02/01 10:33:13;;;;;;;2.42;0.68;;;7.00;99.90;;;;;;5077841;28;19927;-82
2022/02/01 10:35:56;;;;;;;2.17;0.40;;;7.00;99.90;;;;;;5083744;28;20043;-82
2022/02/01 10:38:30;;;;;;;1.23;0.50;;;7.10;99.90;;;;;;5078908;28;20032;-82
2022/02/01 10:40:56;;;;;;;1.38;0.40;;;7.10;99.90;;;;;;5084372;28;20054;-81
2022/02/01 10:43:26;;;;;;;1.67;0.50;;;7.10;99.90;;;;;;5084343;28;20399;-81
2022/02/01 10:45:53;;;;;;;1.65;0.70;;;7.20;99.90;;;;;;5082622;28;20051;-82
2022/02/01 10:48:25;;;;;;;6.85;0.80;;;7.20;99.90;;;;;;5082245;28;20036;-81
2022/02/01 10:51:06;;;;;;;2.80;0.75;;;7.20;99.90;;;;;;5083563;28;20032;-82
2022/02/01 10:53:33;;;;;;;1.30;0.77;;;7.20;99.90;;;;;;5078416;28;20055;-81
2022/02/01 10:56:01;;;;;;;2.45;1.02;;;7.30;99.90;;;;;;5079214;28;20036;-81
2022/02/01 10:58:26;;;;;;;2.40;1.08;;;7.40;99.90;;;;;;5079527;28;20040;-82
2022/02/01 11:00:53;;;;;;;2.55;1.25;;;7.40;99.90;;;;;;5076949;28;20040;-81
2022/02/01 11:03:19;;;;;;;4.85;1.13;;;7.90;99.90;;;;;;5083716;28;20059;-81
2022/02/01 11:05:51;;;;;;;4.70;1.50;;;7.40;99.90;;;;;;5080527;28;20044;-82
2022/02/01 11:08:22;;;;;;;5.82;1.60;;;7.50;99.90;;;;;;5082493;28;20040;-81
2022/02/01 11:10:50;;;;;;;3.13;1.20;;;7.50;99.90;;;;;;5080260;28;20040;-82
2022/02/01 11:13:17;;;;;;;1.75;1.08;;;7.60;99.90;;;;;;5101858;27;20064;-81
2022/02/01 11:16:00;;;;;;;2.65;1.27;;;7.60;99.90;;;;;;5078371;28;20047;-81
2022/02/01 11:18:27;;;;;;;4.53;1.80;;;7.60;99.90;;;;;;5082688;28;20036;-81
2022/02/01 11:21:02;;;;;;;4.28;1.40;;;7.70;99.90;;;;;;5076506;28;20063;-81
2022/02/01 11:23:44;;;;;;;4.10;1.58;;;7.70;99.90;;;;;;5085417;28;20036;-81
2022/02/01 11:26:36;;;;;;;3.38;1.55;;;7.80;99.90;;;;;;5079793;28;20044;-81
2022/02/01 11:29:16;;;;;;;2.72;1.45;;;7.80;99.90;;;;;;5081364;28;20032;-81
2022/02/01 11:31:47;;;;;;;2.25;0.95;;;7.80;99.90;;;;;;5077725;28;20056;-81
2022/02/01 11:34:23;;;;;;;2.40;0.90;;;7.80;99.90;;;;;;5082210;28;20128;-81
2022/02/01 11:36:59;;;;;;;4.63;1.55;;;7.90;99.90;;;;;;5079408;28;20032;-81
2022/02/01 11:39:26;;;;;;;5.05;1.80;;;7.90;99.90;;;;;;5081713;28;20486;-81
2022/02/01 11:41:53;;;;;;;3.70;0.80;;;7.90;99.90;;;;;;5077494;28;20448;-82
2022/02/01 11:44:29;;;;;;;3.63;1.20;;;8.00;99.90;;;;;;5082199;28;20455;-81
2022/02/01 11:47:03;;;;;;;;;;;7.90;99.90;;;;;;5083335;28;20094;-81
2022/02/01 11:49:30;;;;;;;1.88;0.82;;;8.00;99.90;;;;;;5091447;28;19917;-80
2022/02/01 11:52:12;;;;;;;4.90;0.98;;;8.00;99.90;;;;;;5082841;28;20039;-81
2022/02/01 11:54:42;;;;;;;6.47;1.15;;;8.00;99.90;;;;;;5083778;28;20048;-80
2022/02/01 11:57:18;;;;;;;4.88;1.20;;;8.00;99.90;;;;;;5081073;28;20028;-81
2022/02/01 12:00:00;;;;;;;;;;;8.00;99.90;;;;;;5082431;28;20040;-81
2022/02/01 12:02:36;;;;;;;6.53;1.83;;;8.00;99.90;;;;;;5082749;28;19920;-80
2022/02/01 12:05:14;;;;;;;6.40;1.90;;;8.00;99.90;;;;;;5084337;28;20789;-81
2022/02/01 12:08:08;;;;;;;6.00;1.80;;;8.10;99.90;;;;;;5084540;28;20035;-81
2022/02/01 12:10:39;;;;;;;9.13;2.10;;;8.10;99.90;;;;;;5082815;28;20059;-81
2022/02/01 12:13:06;;;;;;;9.68;2.03;;;8.20;99.90;;;;;;5080965;28;20058;-80
2022/02/01 12:15:35;;;;;;;10.15;2.67;;;8.10;99.90;;;;;;5081170;28;20059;-81
2022/02/01 12:18:33;;;;;;;16.17;3.15;;;8.20;99.90;;;;;;5085279;28;20052;-82
2022/02/01 12:21:05;;;;;;;15.57;3.20;;;8.20;99.90;;;;;;5073090;28;20119;-82
2022/02/01 12:23:30;;;;;;;12.00;2.75;;;8.20;99.90;;;;;;5083836;28;20074;-82
2022/02/01 12:25:56;;;;;;;22.80;4.05;;;8.20;99.90;;;;;;5085815;28;20072;-82
2022/02/01 12:28:28;;;;;;;15.30;3.20;;;8.20;99.90;;;;;;5084641;28;20089;-82
2022/02/01 12:31:08;;;;;;;18.27;3.53;;;8.20;99.90;;;;;;5083709;28;20032;-82
2022/02/01 12:33:39;;;;;;;24.88;3.67;;;8.20;99.90;;;;;;5082103;28;20489;-81
2022/02/01 12:36:05;;;;;;;18.48;3.22;;;8.30;99.90;;;;;;5083233;28;20043;-81
2022/02/01 12:38:31;;;;;;;18.23;3.58;;;8.30;99.90;;;;;;5085453;28;20081;-81
2022/02/01 12:41:11;;;;;;;21.10;4.18;;;8.30;99.90;;;;;;5080664;28;20414;-81
2022/02/01 12:43:54;;;;;;;20.85;3.03;;;8.30;99.90;;;;;;5085376;28;20050;-81
2022/02/01 12:46:39;;;;;;;22.13;3.90;;;8.40;99.90;;;;;;5083578;28;20081;-81
2022/02/01 12:49:05;;;;;;;15.70;3.17;;;8.30;99.90;;;;;;5085274;28;20637;-81
2022/02/01 12:51:43;;;;;;;22.50;3.53;;;8.40;99.90;;;;;;5085876;28;20037;-82
2022/02/01 12:54:23;;;;;;;17.67;3.65;;;8.40;99.90;;;;;;5080441;28;20040;-81
2022/02/01 12:56:51;;;;;;;21.77;3.08;;;8.40;99.90;;;;;;5085090;28;20116;-81
2022/02/01 12:59:18;;;;;;;17.45;2.47;;;8.50;99.90;;;;;;5086889;28;20089;-81
2022/02/01 13:01:45;;;;;;;27.73;3.35;;;8.50;99.90;;;;;;5081979;28;20066;-81
2022/02/01 13:04:20;;;;;;;18.60;3.15;;;8.40;99.90;;;;;;5083727;28;20467;-82
2022/02/01 13:06:47;;;;;;;19.13;3.15;;;8.50;99.90;;;;;;5081525;28;20127;-81
2022/02/01 13:14:40;;;;;;;15.13;2.58;;;8.50;99.90;;;;;;5083519;28;20072;-82
2022/02/01 13:17:22;;;;;;;19.90;3.08;;;8.60;99.90;;;;;;5083775;28;20042;-81
2022/02/01 13:20:10;;;;;;;23.60;3.10;;;8.60;99.90;;;;;;5082550;28;20036;-80
2022/02/01 13:22:49;;;;;;;22.88;3.25;;;8.60;99.90;;;;;;5080863;28;20177;-81
2022/02/01 13:25:14;;;;;;;22.40;2.85;;;8.50;99.90;;;;;;5082906;28;20054;-81
2022/02/01 13:27:40;;;;;;;27.20;3.45;;;8.50;99.90;;;;;;5080815;28;20070;-81
2022/02/01 13:30:09;;;;;;;18.42;3.20;;;8.60;99.90;;;;;;5080486;28;20413;-82
2022/02/01 13:32:39;;;;;;;23.20;3.72;;;8.70;99.90;;;;;;5083800;28;20494;-81
2022/02/01 13:35:09;;;;;;;23.65;2.97;;;8.60;99.90;;;;;;5084212;28;20181;-81
2022/02/01 13:37:36;;;;;;;21.02;2.92;;;8.70;99.90;;;;;;5077172;28;20036;-82
2022/02/01 13:40:04;;;;;;;19.95;3.03;;;8.70;99.90;;;;;;5083088;28;20261;-81
2022/02/01 13:42:32;;;;;;;19.58;2.92;;;8.70;99.90;;;;;;5083070;28;20062;-82
2022/02/01 13:45:06;;;;;;;18.23;3.97;;;8.70;99.90;;;;;;5084206;28;20105;-81
2022/02/01 13:47:37;;;;;;;23.73;3.75;;;8.70;99.90;;;;;;5079870;28;20055;-81
2022/02/01 13:50:18;;;;;;;20.15;2.72;;;8.70;99.90;;;;;;5081854;28;20581;-81
2022/02/01 13:52:54;;;;;;;19.77;3.72;;;8.80;99.90;;;;;;5079949;28;20043;-82
2022/02/01 13:55:24;;;;;;;20.05;3.17;;;8.80;99.90;;;;;;5085434;28;20135;-82
2022/02/01 13:58:01;;;;;;;19.63;3.28;;;8.80;99.90;;;;;;5085444;28;20037;-84
2022/02/01 14:00:32;;;;;;;23.45;3.78;;;8.80;99.90;;;;;;5084558;28;20077;-84
2022/02/01 14:03:16;;;;;;;25.38;3.25;;;8.80;99.90;;;;;;5084557;28;20242;-85
2022/02/01 14:05:43;;;;;;;21.10;3.38;;;8.80;99.90;;;;;;5096080;27;20096;-85
2022/02/01 14:08:30;;;;;;;26.92;3.35;;;8.80;99.90;;;;;;5083636;28;20051;-85